Time,TemperatureF,DewpointF,PressureIn,WindDirection,WindDirectionDegrees,WindSpeedMPH,WindSpeedGustMPH,Humidity,HourlyPrecipIn,Conditions,Clouds,dailyrainin,SoftwareType,DateUTC
2013-06-15 00:00:00,57.6,55.9,29.72,WSW,247,0.0,37.0,94,0.00,,,0.62,Wunderground v.1.15,2013-06-15 04:00:00,
2013-06-15 00:10:00,58.2,56.8,29.73,West,281,0.0,37.0,95,0.00,,,0.00,Wunderground v.1.15,2013-06-15 04:10:00,
2013-06-15 00:20:00,57.6,55.9,29.72,WSW,249,0.0,37.0,94,0.00,,,0.00,Wunderground v.1.15,2013-06-15 04:20:00,
2013-06-15 00:30:00,57.2,55.5,29.72,SSW,212,1.0,1.0,94,0.00,,,0.00,Wunderground v.1.15,2013-06-15 04:30:00,
2013-06-15 00:40:00,56.7,55.3,29.72,SE,130,1.0,37.0,95,0.00,,,0.00,Wunderground v.1.15,2013-06-15 04:40:00,
2013-06-15 00:50:00,56.6,55.5,29.72,SE,134,1.0,1.0,96,0.00,,,0.00,Wunderground v.1.15,2013-06-15 04:50:00,
2013-06-15 01:00:00,56.3,55.2,29.72,West,277,0.0,37.0,96,0.00,,,0.00,Wunderground v.1.15,2013-06-15 05:00:00,
2013-06-15 01:10:00,56.9,55.8,29.72,WSW,245,0.0,37.0,96,0.00,,,0.00,Wunderground v.1.15,2013-06-15 05:10:00,
2013-06-15 01:20:00,56.9,55.2,29.72,WSW,245,0.0,37.0,94,0.00,,,0.00,Wunderground v.1.15,2013-06-15 05:20:00,
2013-06-15 01:30:00,56.2,54.5,29.72,West,265,1.0,1.0,94,0.00,,,0.00,Wunderground v.1.15,2013-06-15 05:30:00,
2013-06-15 01:40:00,55.5,54.1,29.72,WNW,283,1.0,37.0,95,0.00,,,0.00,Wunderground v.1.15,2013-06-15 05:40:00,
2013-06-15 01:50:00,55.1,53.7,29.73,NW,307,2.0,37.0,95,0.00,,,0.00,Wunderground v.1.15,2013-06-15 05:50:00,
2013-06-15 02:00:00,55.4,54.3,29.73,NW,310,2.0,37.0,96,0.00,,,0.00,Wunderground v.1.15,2013-06-15 06:00:00,
2013-06-15 02:10:00,55.7,54.6,29.73,NNW,338,3.0,3.0,96,0.00,,,0.00,Wunderground v.1.15,2013-06-15 06:10:00,
2013-06-15 02:20:00,56.0,54.6,29.73,WNW,300,3.0,37.0,95,0.00,,,0.00,Wunderground v.1.15,2013-06-15 06:20:00,
2013-06-15 02:30:00,56.3,54.9,29.73,NNW,348,2.0,37.0,95,0.00,,,0.00,Wunderground v.1.15,2013-06-15 06:30:00,
2013-06-15 02:40:00,56.5,55.1,29.73,WNW,302,3.0,37.0,95,0.00,,,0.00,Wunderground v.1.15,2013-06-15 06:40:00,
2013-06-15 02:50:00,56.8,55.4,29.73,NW,315,3.0,37.0,95,0.00,,,0.00,Wunderground v.1.15,2013-06-15 06:50:00,
2013-06-15 03:00:00,56.8,55.1,29.73,NW,307,3.0,37.0,94,0.00,,,0.00,Wunderground v.1.15,2013-06-15 07:00:00,
2013-06-15 03:10:00,57.1,55.4,29.74,NW,312,4.0,37.0,94,0.00,,,0.00,Wunderground v.1.15,2013-06-15 07:10:00,
2013-06-15 03:20:00,57.2,55.5,29.74,NNE,17,3.0,37.0,94,0.00,,,0.00,Wunderground v.1.15,2013-06-15 07:20:00,
2013-06-15 03:30:00,57.2,55.5,29.74,NNW,330,3.0,37.0,94,0.00,,,0.00,Wunderground v.1.15,2013-06-15 07:30:00,
2013-06-15 03:40:00,57.1,55.4,29.75,NW,316,4.0,37.0,94,0.00,,,0.00,Wunderground v.1.15,2013-06-15 07:40:00,
2013-06-15 03:50:00,57.3,55.3,29.76,NW,307,5.0,37.0,93,0.00,,,0.00,Wunderground v.1.15,2013-06-15 07:50:00,
2013-06-15 04:00:00,57.5,55.5,29.76,NW,323,4.0,37.0,93,0.00,,,0.00,Wunderground v.1.15,2013-06-15 08:00:00,
2013-06-15 04:10:00,57.4,55.4,29.76,NNW,346,4.0,4.0,93,0.00,,,0.00,Wunderground v.1.15,2013-06-15 08:10:00,
2013-06-15 04:20:00,57.3,55.3,29.76,NW,324,3.0,37.0,93,0.00,,,0.00,Wunderground v.1.15,2013-06-15 08:20:00,
2013-06-15 04:30:00,57.4,55.1,29.77,WNW,302,4.0,4.0,92,0.00,,,0.00,Wunderground v.1.15,2013-06-15 08:30:00,
2013-06-15 04:40:00,57.4,55.1,29.77,NNW,343,4.0,4.0,92,0.00,,,0.00,Wunderground v.1.15,2013-06-15 08:40:00,
2013-06-15 04:50:00,57.6,55.3,29.77,NNW,327,4.0,37.0,92,0.00,,,0.00,Wunderground v.1.15,2013-06-15 08:50:00,
2013-06-15 05:00:00,57.9,55.3,29.78,NW,311,4.0,37.0,91,0.00,,,0.00,Wunderground v.1.15,2013-06-15 09:00:00,
2013-06-15 05:10:00,58.2,55.6,29.78,NW,313,6.0,37.0,91,0.00,,,0.00,Wunderground v.1.15,2013-06-15 09:10:00,
2013-06-15 05:20:00,58.4,55.5,29.79,WNW,285,6.0,6.0,90,0.00,,,0.00,Wunderground v.1.15,2013-06-15 09:20:00,
2013-06-15 05:30:00,58.7,55.8,29.79,NW,314,6.0,37.0,90,0.00,,,0.00,Wunderground v.1.15,2013-06-15 09:30:00,
2013-06-15 05:40:00,59.2,55.6,29.80,WNW,293,5.0,37.0,88,0.00,,,0.00,Wunderground v.1.15,2013-06-15 09:40:00,
2013-06-15 05:50:00,60.0,55.8,29.80,NW,309,6.0,37.0,86,0.00,,,0.00,Wunderground v.1.15,2013-06-15 09:50:00,
2013-06-15 06:00:00,60.4,56.2,29.80,WNW,303,5.0,37.0,86,0.00,,,0.00,Wunderground v.1.15,2013-06-15 10:00:00,
2013-06-15 06:10:00,60.6,56.1,29.81,NW,314,6.0,37.0,85,0.00,,,0.00,Wunderground v.1.15,2013-06-15 10:10:00,
2013-06-15 06:20:00,61.0,56.1,29.81,NW,320,6.0,6.0,84,0.00,,,0.00,Wunderground v.1.15,2013-06-15 10:20:00,
2013-06-15 06:30:00,61.3,56.4,29.81,North,11,6.0,37.0,84,0.00,,,0.00,Wunderground v.1.15,2013-06-15 10:30:00,
2013-06-15 06:40:00,61.8,55.9,29.82,NNW,330,8.0,37.0,81,0.00,,,0.00,Wunderground v.1.15,2013-06-15 10:40:00,
2013-06-15 06:50:00,62.2,56.3,29.82,NNW,340,7.0,37.0,81,0.00,,,0.00,Wunderground v.1.15,2013-06-15 10:50:00,
2013-06-15 07:00:00,62.5,55.9,29.83,NW,316,8.0,37.0,79,0.00,,,0.00,Wunderground v.1.15,2013-06-15 11:00:00,
2013-06-15 07:10:00,62.8,55.8,29.83,NNE,18,8.0,37.0,78,0.00,,,0.00,Wunderground v.1.15,2013-06-15 11:10:00,
2013-06-15 07:20:00,63.0,56.0,29.83,NNW,347,9.0,9.0,78,0.00,,,0.00,Wunderground v.1.15,2013-06-15 11:20:00,
2013-06-15 07:30:00,63.1,55.4,29.83,West,280,9.0,37.0,76,0.00,,,0.00,Wunderground v.1.15,2013-06-15 11:30:00,
2013-06-15 07:40:00,63.4,55.7,29.83,NNW,341,8.0,37.0,76,0.00,,,0.00,Wunderground v.1.15,2013-06-15 11:40:00,
2013-06-15 07:51:00,63.6,55.5,29.83,NNW,333,8.0,37.0,75,0.00,,,0.00,Wunderground v.1.15,2013-06-15 11:51:00,
2013-06-15 08:00:00,63.9,56.2,29.84,NNW,348,9.0,37.0,76,0.00,,,0.00,Wunderground v.1.15,2013-06-15 12:00:00,
2013-06-15 08:10:00,64.0,55.9,29.84,North,11,8.0,8.0,75,0.00,,,0.00,Wunderground v.1.15,2013-06-15 12:10:00,
2013-06-15 08:20:00,64.3,56.2,29.85,North,360,9.0,9.0,75,0.00,,,0.00,Wunderground v.1.15,2013-06-15 12:20:00,
2013-06-15 08:30:00,64.8,55.9,29.85,NNW,338,7.0,37.0,73,0.00,,,0.00,Wunderground v.1.15,2013-06-15 12:30:00,
2013-06-15 08:40:00,64.8,55.6,29.85,NNW,336,9.0,37.0,72,0.00,,,0.00,Wunderground v.1.15,2013-06-15 12:40:00,
2013-06-15 08:50:00,65.1,55.5,29.86,NW,315,9.0,9.0,71,0.00,,,0.00,Wunderground v.1.15,2013-06-15 12:50:00,
2013-06-15 09:00:00,65.5,55.5,29.86,NW,317,8.0,37.0,70,0.00,,,0.00,Wunderground v.1.15,2013-06-15 13:00:00,
2013-06-15 09:10:00,65.8,55.3,29.87,NNW,338,7.0,7.0,69,0.00,,,0.00,Wunderground v.1.15,2013-06-15 13:10:00,
2013-06-15 09:20:00,66.6,55.3,29.87,NW,321,5.0,37.0,67,0.00,,,0.00,Wunderground v.1.15,2013-06-15 13:20:00,
2013-06-15 09:30:00,66.6,55.3,29.87,WNW,300,7.0,37.0,67,0.00,,,0.00,Wunderground v.1.15,2013-06-15 13:30:00,
2013-06-15 09:40:00,66.8,55.5,29.88,NNW,330,7.0,7.0,67,0.00,,,0.00,Wunderground v.1.15,2013-06-15 13:40:00,
2013-06-15 09:50:00,67.2,55.5,29.88,WNW,297,6.0,37.0,66,0.00,,,0.00,Wunderground v.1.15,2013-06-15 13:50:00,
2013-06-15 10:00:00,67.6,55.0,29.88,NW,319,7.0,7.0,64,0.00,,,0.00,Wunderground v.1.15,2013-06-15 14:00:00,
2013-06-15 10:10:00,68.1,55.0,29.88,North,359,6.0,37.0,63,0.00,,,0.00,Wunderground v.1.15,2013-06-15 14:10:00,
2013-06-15 10:20:00,68.7,54.7,29.89,NW,308,6.0,37.0,61,0.00,,,0.00,Wunderground v.1.15,2013-06-15 14:20:00,
2013-06-15 10:30:00,68.8,52.9,29.89,NNW,339,6.0,6.0,57,0.00,,,0.00,Wunderground v.1.15,2013-06-15 14:30:00,
2013-06-15 10:40:00,69.4,54.0,29.88,North,354,5.0,5.0,58,0.00,,,0.00,Wunderground v.1.15,2013-06-15 14:40:00,
2013-06-15 10:50:00,69.7,54.3,29.88,NNE,20,5.0,37.0,58,0.00,,,0.00,Wunderground v.1.15,2013-06-15 14:50:00,
2013-06-15 11:00:00,69.8,53.4,29.88,NW,305,5.0,5.0,56,0.00,,,0.00,Wunderground v.1.15,2013-06-15 15:00:00,
2013-06-15 11:10:00,70.9,53.9,29.89,West,259,4.0,37.0,55,0.00,,,0.00,Wunderground v.1.15,2013-06-15 15:10:00,
2013-06-15 11:20:00,70.6,53.6,29.89,North,354,5.0,5.0,55,0.00,,,0.00,Wunderground v.1.15,2013-06-15 15:20:00,
2013-06-15 11:30:00,70.6,53.6,29.89,NE,37,5.0,5.0,55,0.00,,,0.00,Wunderground v.1.15,2013-06-15 15:30:00,
2013-06-15 11:40:00,70.6,51.6,29.89,NNE,19,4.0,4.0,51,0.00,,,0.00,Wunderground v.1.15,2013-06-15 15:40:00,
2013-06-15 11:50:00,71.5,52.9,29.89,WNW,288,3.0,3.0,52,0.00,,,0.00,Wunderground v.1.15,2013-06-15 15:50:00,
2013-06-15 12:00:00,72.4,52.7,29.89,North,356,3.0,3.0,50,0.00,,,0.00,Wunderground v.1.15,2013-06-15 16:00:00,
2013-06-15 12:10:00,71.9,51.1,29.89,North,358,4.0,37.0,48,0.00,,,0.00,Wunderground v.1.15,2013-06-15 16:10:00,
2013-06-15 12:20:00,70.8,50.1,29.89,NNW,347,5.0,37.0,48,0.00,,,0.00,Wunderground v.1.15,2013-06-15 16:20:00,
2013-06-15 12:30:00,71.7,48.0,29.89,WNW,291,4.0,37.0,43,0.00,,,0.00,Wunderground v.1.15,2013-06-15 16:30:00,
2013-06-15 12:40:00,73.4,46.9,29.89,NW,318,3.0,37.0,39,0.00,,,0.00,Wunderground v.1.15,2013-06-15 16:40:00,
2013-06-15 12:50:00,72.6,50.6,29.89,NNW,338,4.0,4.0,46,0.00,,,0.00,Wunderground v.1.15,2013-06-15 16:50:00,
2013-06-15 13:00:00,73.5,51.4,29.89,ENE,73,2.0,2.0,46,0.00,,,0.00,Wunderground v.1.15,2013-06-15 17:00:00,
2013-06-15 13:10:00,73.2,50.6,29.89,NNE,15,4.0,4.0,45,0.00,,,0.00,Wunderground v.1.15,2013-06-15 17:10:00,
2013-06-15 13:20:00,72.9,50.3,29.89,NNE,32,4.0,37.0,45,0.00,,,0.00,Wunderground v.1.15,2013-06-15 17:20:00,
2013-06-15 13:30:00,73.1,49.9,29.89,North,349,4.0,4.0,44,0.00,,,0.00,Wunderground v.1.15,2013-06-15 17:30:00,
2013-06-15 13:40:00,72.5,48.1,29.89,NNE,15,5.0,37.0,42,0.00,,,0.00,Wunderground v.1.15,2013-06-15 17:40:00,
2013-06-15 13:50:00,73.3,48.8,29.89,North,9,5.0,5.0,42,0.00,,,0.00,Wunderground v.1.15,2013-06-15 17:50:00,
2013-06-15 14:00:00,72.7,49.5,29.89,NNE,27,4.0,4.0,44,0.00,,,0.00,Wunderground v.1.15,2013-06-15 18:00:00,
2013-06-15 14:10:00,72.6,48.8,29.89,NE,50,5.0,37.0,43,0.00,,,0.00,Wunderground v.1.15,2013-06-15 18:10:00,
2013-06-15 14:20:00,71.2,47.6,29.89,NE,53,5.0,37.0,43,0.00,,,0.00,Wunderground v.1.15,2013-06-15 18:20:00,
2013-06-15 14:30:00,70.4,46.8,29.89,East,84,6.0,6.0,43,0.00,,,0.00,Wunderground v.1.15,2013-06-15 18:30:00,
2013-06-15 14:40:00,70.9,47.9,29.89,East,86,6.0,37.0,44,0.00,,,0.00,Wunderground v.1.15,2013-06-15 18:40:00,
2013-06-15 14:50:00,69.4,45.3,29.89,ENE,70,7.0,7.0,42,0.00,,,0.00,Wunderground v.1.15,2013-06-15 18:50:00,
2013-06-15 15:00:00,68.8,45.4,29.89,SE,129,7.0,7.0,43,0.00,,,0.00,Wunderground v.1.15,2013-06-15 19:00:00,
2013-06-15 15:10:00,69.7,44.9,29.89,SE,136,4.0,37.0,41,0.00,,,0.00,Wunderground v.1.15,2013-06-15 19:10:00,
2013-06-15 15:20:00,70.2,46.6,29.89,SE,124,4.0,37.0,43,0.00,,,0.00,Wunderground v.1.15,2013-06-15 19:20:00,
2013-06-15 15:30:00,70.5,46.3,29.89,SE,130,4.0,37.0,42,0.00,,,0.00,Wunderground v.1.15,2013-06-15 19:30:00,
2013-06-15 15:40:00,70.2,47.3,29.89,South,177,6.0,37.0,44,0.00,,,0.00,Wunderground v.1.15,2013-06-15 19:40:00,
2013-06-15 15:50:00,71.5,44.5,29.89,SSE,158,6.0,37.0,38,0.00,,,0.00,Wunderground v.1.15,2013-06-15 19:50:00,
2013-06-15 16:00:00,69.9,45.8,29.89,South,188,10.0,10.0,42,0.00,,,0.00,Wunderground v.1.15,2013-06-15 20:00:00,
2013-06-15 16:10:00,69.5,47.2,29.89,SSW,197,7.0,7.0,45,0.00,,,0.00,Wunderground v.1.15,2013-06-15 20:10:00,
2013-06-15 16:20:00,69.8,45.7,29.89,ESE,117,7.0,7.0,42,0.00,,,0.00,Wunderground v.1.15,2013-06-15 20:20:00,
2013-06-15 16:30:00,70.1,43.3,29.89,SSW,204,5.0,5.0,38,0.00,,,0.00,Wunderground v.1.15,2013-06-15 20:30:00,
2013-06-15 16:40:00,69.9,43.8,29.89,SSE,158,6.0,37.0,39,0.00,,,0.00,Wunderground v.1.15,2013-06-15 20:40:00,
2013-06-15 16:50:00,69.5,45.4,29.89,SE,141,7.0,7.0,42,0.00,,,0.00,Wunderground v.1.15,2013-06-15 20:50:00,
2013-06-15 17:00:00,69.2,46.9,29.89,SSW,198,6.0,37.0,45,0.00,,,0.00,Wunderground v.1.15,2013-06-15 21:00:00,
2013-06-15 17:10:00,68.5,45.1,29.89,SSE,164,7.0,37.0,43,0.00,,,0.00,Wunderground v.1.15,2013-06-15 21:10:00,
2013-06-15 17:20:00,67.7,47.8,29.89,SE,129,9.0,9.0,49,0.00,,,0.00,Wunderground v.1.15,2013-06-15 21:20:00,
2013-06-15 17:30:00,67.5,48.2,29.90,SSW,207,8.0,8.0,50,0.00,,,0.00,Wunderground v.1.15,2013-06-15 21:30:00,
2013-06-15 17:40:00,67.4,48.6,29.90,SSE,160,7.0,7.0,51,0.00,,,0.00,Wunderground v.1.15,2013-06-15 21:40:00,
2013-06-15 17:50:00,67.3,47.5,29.90,South,188,7.0,7.0,49,0.00,,,0.00,Wunderground v.1.15,2013-06-15 21:50:00,
2013-06-15 18:00:00,67.3,46.9,29.89,South,183,7.0,37.0,48,0.00,,,0.00,Wunderground v.1.15,2013-06-15 22:00:00,
2013-06-15 18:10:00,67.1,51.8,29.89,SSE,150,6.0,37.0,58,0.00,,,0.00,Wunderground v.1.15,2013-06-15 22:10:00,
2013-06-15 18:20:00,67.4,53.9,29.89,SSE,150,7.0,7.0,62,0.00,,,0.00,Wunderground v.1.15,2013-06-15 22:20:00,
2013-06-15 18:30:00,67.3,52.5,29.90,South,174,6.0,37.0,59,0.00,,,0.00,Wunderground v.1.15,2013-06-15 22:30:00,
2013-06-15 18:40:00,67.4,53.9,29.90,ESE,115,5.0,5.0,62,0.00,,,0.00,Wunderground v.1.15,2013-06-15 22:40:00,
2013-06-15 18:50:00,67.1,54.1,29.90,SSW,211,7.0,37.0,63,0.00,,,0.00,Wunderground v.1.15,2013-06-15 22:50:00,
2013-06-15 19:00:00,66.6,54.5,29.89,SSE,159,7.0,37.0,65,0.00,,,0.00,Wunderground v.1.15,2013-06-15 23:00:00,
2013-06-15 19:10:00,66.1,54.0,29.89,South,181,7.0,37.0,65,0.00,,,0.00,Wunderground v.1.15,2013-06-15 23:10:00,
2013-06-15 19:20:00,65.3,54.5,29.89,SE,142,7.0,7.0,68,0.00,,,0.00,Wunderground v.1.15,2013-06-15 23:20:00,
2013-06-15 19:30:00,64.9,54.5,29.89,South,188,6.0,6.0,69,0.00,,,0.00,Wunderground v.1.15,2013-06-15 23:30:00,
2013-06-15 19:40:00,64.2,54.6,29.90,SSE,153,5.0,37.0,71,0.00,,,0.00,Wunderground v.1.15,2013-06-15 23:40:00,
2013-06-15 19:50:00,63.2,55.5,29.90,SSW,195,5.0,5.0,76,0.00,,,0.00,Wunderground v.1.15,2013-06-15 23:50:00,
2013-06-15 20:00:00,62.7,56.1,29.90,South,191,3.0,37.0,79,0.00,,,0.00,Wunderground v.1.15,2013-06-16 00:00:00,
2013-06-15 20:10:00,62.3,56.7,29.90,SE,143,5.0,5.0,82,0.00,,,0.00,Wunderground v.1.15,2013-06-16 00:10:00,
2013-06-15 20:20:00,61.8,56.2,29.90,SSW,197,4.0,4.0,82,0.00,,,0.00,Wunderground v.1.15,2013-06-16 00:20:00,
2013-06-15 20:30:00,61.5,56.3,29.89,WSW,252,4.0,4.0,83,0.00,,,0.00,Wunderground v.1.15,2013-06-16 00:30:00,
2013-06-15 20:40:00,61.4,56.5,29.90,SSE,150,4.0,4.0,84,0.00,,,0.00,Wunderground v.1.15,2013-06-16 00:40:00,
2013-06-15 20:50:00,61.4,56.5,29.90,SE,141,5.0,5.0,84,0.00,,,0.00,Wunderground v.1.15,2013-06-16 00:50:00,
2013-06-15 21:00:00,61.2,56.7,29.90,SSE,160,4.0,37.0,85,0.00,,,0.00,Wunderground v.1.15,2013-06-16 01:00:00,
2013-06-15 21:10:00,61.4,56.8,29.91,SE,128,4.0,37.0,85,0.00,,,0.00,Wunderground v.1.15,2013-06-16 01:10:00,
2013-06-15 21:20:00,61.3,56.8,29.91,SW,216,4.0,4.0,85,0.00,,,0.00,Wunderground v.1.15,2013-06-16 01:20:00,
2013-06-15 21:30:00,61.1,56.9,29.92,SW,235,4.0,4.0,86,0.00,,,0.00,Wunderground v.1.15,2013-06-16 01:30:00,
2013-06-15 21:40:00,61.1,57.2,29.92,ESE,105,4.0,37.0,87,0.00,,,0.00,Wunderground v.1.15,2013-06-16 01:40:00,
2013-06-15 21:50:00,60.9,57.3,29.92,South,186,4.0,37.0,88,0.00,,,0.00,Wunderground v.1.15,2013-06-16 01:50:00,
2013-06-15 22:00:00,60.8,57.2,29.92,South,183,3.0,3.0,88,0.00,,,0.00,Wunderground v.1.15,2013-06-16 02:00:00,
2013-06-15 22:10:00,60.7,57.7,29.92,WSW,257,3.0,3.0,90,0.00,,,0.00,Wunderground v.1.15,2013-06-16 02:10:00,
2013-06-15 22:20:00,60.8,57.8,29.92,SW,228,3.0,37.0,90,0.00,,,0.00,Wunderground v.1.15,2013-06-16 02:20:00,
2013-06-15 22:30:00,60.9,57.9,29.92,SSW,204,3.0,3.0,90,0.00,,,0.00,Wunderground v.1.15,2013-06-16 02:30:00,
2013-06-15 22:40:00,61.0,58.0,29.92,WSW,240,3.0,37.0,90,0.00,,,0.00,Wunderground v.1.15,2013-06-16 02:40:00,
2013-06-15 22:50:00,61.1,58.1,29.92,SSE,166,4.0,37.0,90,0.00,,,0.00,Wunderground v.1.15,2013-06-16 02:50:00,
2013-06-15 23:00:00,61.2,58.6,29.92,WSW,238,4.0,4.0,91,0.00,,,0.00,Wunderground v.1.15,2013-06-16 03:00:00,
2013-06-15 23:10:00,61.3,58.7,29.93,WSW,237,3.0,3.0,91,0.00,,,0.00,Wunderground v.1.15,2013-06-16 03:10:00,
2013-06-15 23:20:00,61.2,58.9,29.93,SSW,194,3.0,3.0,92,0.00,,,0.00,Wunderground v.1.15,2013-06-16 03:20:00,
2013-06-15 23:30:00,61.6,59.3,29.94,SSW,206,2.0,37.0,92,0.00,,,0.00,Wunderground v.1.15,2013-06-16 03:30:00,
2013-06-15 23:40:00,61.9,59.5,29.94,SW,219,3.0,3.0,92,0.00,,,0.00,Wunderground v.1.15,2013-06-16 03:40:00,
2013-06-15 23:50:00,62.2,59.8,29.93,SW,221,2.0,37.0,92,0.00,,,0.00,Wunderground v.1.15,2013-06-16 03:50:00,